Time;durP1;ratioP1;P1;durP2;ratioP2;P2;SDS_P1;SDS_P2;PMS_P1;PMS_P2;Temp;Humidity;BMP_temperature;BMP_pressure;BME280_temperature;BME280_humidity;BME280_pressure;Samples;Min_cycle;Max_cycle;Signal;HPM_P1;HPM_P2
2023/07/12 00:00:45;;;;;;;10.63;7.50;;;;;;;20.18;100.00;100651.03;4988257;28;21215;-43
2023/07/12 00:03:13;;;;;;;8.27;7.63;;;;;;;20.20;100.00;100635.31;4987739;28;20473;-46
2023/07/12 00:05:42;;;;;;;8.50;7.80;;;;;;;20.17;100.00;100603.34;4987775;28;20465;-45
2023/07/12 00:08:17;;;;;;;10.90;7.30;;;;;;;20.16;100.00;100596.34;4988219;28;20461;-45
2023/07/12 00:10:47;;;;;;;7.70;7.10;;;;;;;20.14;100.00;100607.41;5002738;28;20880;-46
2023/07/12 00:13:16;;;;;;;9.50;6.63;;;;;;;20.14;100.00;100604.72;4991198;28;20437;-45
2023/07/12 00:15:45;;;;;;;7.10;6.60;;;;;;;20.16;100.00;100599.03;4991729;28;20473;-44
2023/07/12 00:18:15;;;;;;;11.97;8.70;;;;;;;20.15;100.00;100608.22;4992478;28;21076;-45
2023/07/12 00:20:44;;;;;;;8.00;7.10;;;;;;;20.21;100.00;100612.59;4992068;28;20500;-43
2023/07/12 00:23:13;;;;;;;13.73;7.83;;;;;;;20.13;100.00;100651.81;4992078;28;20433;-43
2023/07/12 00:25:43;;;;;;;8.57;7.73;;;;;;;20.19;100.00;100707.63;4991841;28;20540;-44
2023/07/12 00:28:21;;;;;;;9.73;8.83;;;;;;;20.26;100.00;100761.59;4991209;28;20449;-45
2023/07/12 00:30:50;;;;;;;8.27;7.57;;;;;;;20.27;100.00;100785.72;4992320;28;20421;-46
2023/07/12 00:33:19;;;;;;;8.10;7.30;;;;;;;20.29;100.00;100813.34;4991804;28;21157;-47
2023/07/12 00:35:48;;;;;;;9.53;8.40;;;;;;;20.35;100.00;100833.16;4991327;28;21219;-44
2023/07/12 00:38:18;;;;;;;12.43;9.60;;;;;;;20.31;100.00;100792.22;4992001;28;20836;-44
2023/07/12 00:41:04;;;;;;;18.30;12.47;;;;;;;20.23;100.00;100732.28;4992500;28;20438;-48
2023/07/12 00:43:38;;;;;;;27.10;12.13;;;;;;;20.14;100.00;100731.97;4992825;28;20432;-49
2023/07/12 00:46:12;;;;;;;25.10;12.23;;;;;;;20.13;100.00;100733.03;4993850;28;20465;-45
2023/07/12 00:48:40;;;;;;;13.53;9.73;;;;;;;20.10;100.00;100705.69;4992140;28;20437;-51
2023/07/12 00:51:31;;;;;;;16.63;10.30;;;;;;;20.05;100.00;100687.50;4991736;28;20531;-45
2023/07/12 00:53:59;;;;;;;11.60;9.90;;;;;;;20.04;100.00;100688.56;4991681;28;20437;-45
2023/07/12 00:56:28;;;;;;;13.97;10.27;;;;;;;20.03;100.00;100689.66;4991658;28;20469;-47
2023/07/12 00:59:04;;;;;;;10.80;9.80;;;;;;;20.01;100.00;100685.56;4991988;28;20514;-44
2023/07/12 01:01:35;;;;;;;12.03;9.40;;;;;;;20.00;100.00;100682.03;4991099;28;20453;-46
2023/07/12 01:04:03;;;;;;;9.57;8.13;;;;;;;20.00;100.00;100695.59;4991770;28;20438;-48
2023/07/12 01:06:32;;;;;;;9.20;7.03;;;;;;;19.99;100.00;100693.13;4991735;28;20429;-47
2023/07/12 01:09:06;;;;;;;8.63;7.20;;;;;;;19.98;100.00;100705.84;4991490;28;20524;-47
2023/07/12 01:11:34;;;;;;;7.10;6.50;;;;;;;19.97;100.00;100709.63;4991430;28;20496;-49
2023/07/12 01:14:10;;;;;;;10.87;8.33;;;;;;;19.96;100.00;100713.41;4990443;28;20894;-43
2023/07/12 01:16:39;;;;;;;9.37;8.23;;;;;;;19.95;100.00;100730.72;4991821;28;20472;-49
2023/07/12 01:19:07;;;;;;;9.13;8.20;;;;;;;19.89;100.00;100726.34;4991392;28;20604;-44
2023/07/12 01:21:38;;;;;;;9.97;9.00;;;;;;;19.82;100.00;100729.28;4990908;28;20484;-51
2023/07/12 01:24:06;;;;;;;10.10;9.20;;;;;;;19.76;100.00;100734.91;4991067;28;20956;-46
2023/07/12 01:26:36;;;;;;;14.83;9.80;;;;;;;19.71;100.00;100732.16;4990993;28;20438;-46
2023/07/12 01:29:07;;;;;;;11.03;9.77;;;;;;;19.65;100.00;100716.94;4991273;28;20421;-48
2023/07/12 01:31:36;;;;;;;9.27;8.30;;;;;;;19.56;100.00;100697.63;4990895;28;20453;-45
2023/07/12 01:34:07;;;;;;;9.50;8.73;;;;;;;19.50;100.00;100687.88;4990871;28;20529;-44
2023/07/12 01:36:37;;;;;;;12.97;9.97;;;;;;;19.44;100.00;100659.13;4991269;28;20928;-48
2023/07/12 01:39:06;;;;;;;10.00;9.10;;;;;;;19.37;100.00;100641.44;4990933;28;20568;-49
2023/07/12 01:41:34;;;;;;;10.23;9.20;;;;;;;19.34;100.00;100642.78;4990936;28;20581;-43
2023/07/12 01:44:02;;;;;;;11.40;10.27;;;;;;;19.36;100.00;100624.41;4990919;28;20437;-44
2023/07/12 01:46:30;;;;;;;9.17;8.30;;;;;;;19.35;100.00;100622.78;4990633;28;21140;-46
2023/07/12 01:48:59;;;;;;;10.17;9.10;;;;;;;19.36;100.00;100627.09;4990744;28;20441;-43
2023/07/12 01:51:29;;;;;;;13.67;10.13;;;;;;;19.38;100.00;100626.88;4990123;28;20541;-47
2023/07/12 01:53:58;;;;;;;10.40;9.20;;;;;;;19.35;100.00;100615.47;4991154;28;20440;-43
2023/07/12 01:56:26;;;;;;;8.90;8.30;;;;;;;19.37;100.00;100606.28;4990356;28;20505;-46
2023/07/12 01:58:53;;;;;;;9.63;8.83;;;;;;;19.35;100.00;100609.28;4990762;28;20440;-43
2023/07/12 02:01:21;;;;;;;8.70;8.00;;;;;;;19.38;100.00;100618.75;4990584;28;20512;-44
2023/07/12 02:03:49;;;;;;;9.47;8.53;;;;;;;19.37;100.00;100604.41;4990308;28;20437;-44
2023/07/12 02:06:17;;;;;;;9.30;8.70;;;;;;;19.33;100.00;100614.91;4990285;28;20465;-46
2023/07/12 02:08:45;;;;;;;9.23;8.17;;;;;;;19.30;100.00;100591.09;4990547;28;20433;-43
2023/07/12 02:11:15;;;;;;;10.37;8.70;;;;;;;19.30;100.00;100572.16;4991309;28;21241;-44
2023/07/12 02:13:43;;;;;;;9.30;8.50;;;;;;;19.31;100.00;100567.59;4990521;28;20840;-43
2023/07/12 02:16:11;;;;;;;8.87;8.17;;;;;;;19.26;100.00;100573.75;4989659;28;20469;-44
2023/07/12 02:18:38;;;;;;;8.57;7.67;;;;;;;19.19;100.00;100573.16;4990003;28;20444;-46
2023/07/12 02:21:06;;;;;;;8.00;7.60;;;;;;;19.17;100.00;100582.59;4991806;28;20488;-49
2023/07/12 02:23:34;;;;;;;8.30;7.80;;;;;;;19.16;100.00;100570.16;4990238;28;20440;-44
2023/07/12 02:26:02;;;;;;;9.27;8.47;;;;;;;19.15;100.00;100558.53;4989512;28;20464;-47
2023/07/12 02:28:31;;;;;;;10.83;9.57;;;;;;;19.11;100.00;100565.53;4990206;28;20437;-45
2023/07/12 02:31:14;;;;;;;9.60;8.67;;;;;;;19.12;100.00;100575.25;4991173;28;20458;-45
2023/07/12 02:33:42;;;;;;;9.67;8.97;;;;;;;19.11;100.00;100578.22;4995992;28;20426;-42
2023/07/12 02:36:10;;;;;;;10.47;9.43;;;;;;;19.12;100.00;100558.22;4994113;28;20508;-44
2023/07/12 02:38:37;;;;;;;8.47;7.77;;;;;;;19.09;100.00;100545.22;4995710;28;20469;-46
2023/07/12 02:41:07;;;;;;;9.30;8.57;;;;;;;19.02;100.00;100525.72;4997794;28;20696;-48
2023/07/12 02:43:36;;;;;;;9.73;8.90;;;;;;;19.00;100.00;100504.34;4995916;28;20460;-47
2023/07/12 02:46:04;;;;;;;9.50;8.90;;;;;;;18.96;100.00;100492.44;4996535;28;20516;-46
2023/07/12 02:48:32;;;;;;;8.70;8.10;;;;;;;18.96;100.00;100505.94;4995000;28;20920;-42
2023/07/12 02:51:00;;;;;;;10.87;9.90;;;;;;;18.98;100.00;100522.69;4995489;28;20461;-41
2023/07/12 02:53:29;;;;;;;10.50;9.70;;;;;;;18.97;100.00;100506.72;4996645;28;20464;-46
2023/07/12 02:55:56;;;;;;;10.60;9.70;;;;;;;18.96;100.00;100532.97;4996501;28;20552;-42
2023/07/12 02:58:24;;;;;;;9.90;9.20;;;;;;;18.98;100.00;100508.38;4996946;28;20469;-45
2023/07/12 03:00:58;;;;;;;9.70;9.00;;;;;;;18.97;100.00;100504.03;4996838;28;20521;-42
2023/07/12 03:03:27;;;;;;;9.00;8.37;;;;;;;18.96;100.00;100497.84;4995842;28;20754;-46
2023/07/12 03:05:55;;;;;;;9.90;8.90;;;;;;;18.96;100.00;100494.31;4995614;28;20491;-47
2023/07/12 03:08:22;;;;;;;8.90;8.20;;;;;;;18.94;100.00;100472.94;4995765;28;20460;-45
2023/07/12 03:10:50;;;;;;;9.77;8.87;;;;;;;18.95;100.00;100482.69;4996074;28;20472;-43
2023/07/12 03:13:18;;;;;;;8.60;7.93;;;;;;;18.95;100.00;100479.97;4995708;28;20429;-44
2023/07/12 03:15:46;;;;;;;9.30;8.47;;;;;;;18.96;100.00;100476.22;4995380;28;20469;-45
2023/07/12 03:18:15;;;;;;;8.30;7.47;;;;;;;18.98;100.00;100484.03;4994741;28;20469;-49
2023/07/12 03:20:42;;;;;;;7.83;7.43;;;;;;;18.98;100.00;100489.44;4996323;28;20528;-44
2023/07/12 03:23:10;;;;;;;8.77;8.27;;;;;;;18.99;100.00;100491.91;4994687;28;21054;-41
2023/07/12 03:25:38;;;;;;;8.63;8.13;;;;;;;18.99;100.00;100478.41;4993935;28;20472;-42
2023/07/12 03:28:06;;;;;;;8.67;8.07;;;;;;;18.97;100.00;100472.41;4996040;28;20433;-44
2023/07/12 03:30:34;;;;;;;8.67;8.00;;;;;;;18.94;100.00;100464.00;4995789;28;20436;-44
2023/07/12 03:33:02;;;;;;;8.93;8.33;;;;;;;18.93;100.00;100471.31;4995122;28;20465;-46
2023/07/12 03:35:31;;;;;;;8.57;8.07;;;;;;;18.93;100.00;100475.91;4995702;28;20454;-45
2023/07/12 03:37:58;;;;;;;8.67;8.00;;;;;;;18.93;100.00;100476.72;4996926;28;20477;-44
2023/07/12 03:40:26;;;;;;;8.73;8.20;;;;;;;18.92;100.00;100491.31;4995578;28;20426;-43
2023/07/12 03:42:54;;;;;;;8.07;7.57;;;;;;;18.90;100.00;100493.47;4995054;28;20457;-46
2023/07/12 03:45:23;;;;;;;8.20;7.77;;;;;;;18.90;100.00;100500.75;4994223;28;20503;-42
2023/07/12 03:47:50;;;;;;;8.87;8.40;;;;;;;18.91;100.00;100511.28;4993993;28;20444;-42
2023/07/12 03:50:18;;;;;;;8.23;7.60;;;;;;;18.95;100.00;100517.00;4994846;28;20453;-44
2023/07/12 03:52:48;;;;;;;8.00;7.60;;;;;;;18.98;100.00;100522.69;4994853;28;20504;-44
2023/07/12 03:55:15;;;;;;;8.83;8.30;;;;;;;19.01;100.00;100513.25;4994606;28;20461;-42
2023/07/12 03:57:43;;;;;;;8.90;8.30;;;;;;;19.03;100.00;100498.41;4994434;28;21250;-44
2023/07/12 04:00:13;;;;;;;8.80;8.40;;;;;;;19.04;100.00;100489.25;4994691;28;20473;-44
2023/07/12 04:02:42;;;;;;;8.40;7.67;;;;;;;19.04;100.00;100497.34;4994519;28;20477;-45
2023/07/12 04:05:09;;;;;;;7.27;6.70;;;;;;;19.07;100.00;100496.00;4993842;28;20462;-45
2023/07/12 04:07:37;;;;;;;6.80;6.50;;;;;;;19.10;100.00;100481.97;4995085;28;20795;-45
2023/07/12 04:10:08;;;;;;;8.70;8.10;;;;;;;19.11;100.00;100479.03;4995375;28;20460;-47
2023/07/12 04:12:35;;;;;;;8.07;7.57;;;;;;;19.11;100.00;100467.41;4996634;28;20445;-45
2023/07/12 04:15:04;;;;;;;8.87;7.97;;;;;;;19.11;100.00;100467.41;4994954;28;20461;-45
2023/07/12 04:17:31;;;;;;;8.97;8.30;;;;;;;19.11;100.00;100473.63;4994406;28;20588;-45
2023/07/12 04:19:59;;;;;;;9.10;8.40;;;;;;;19.12;100.00;100475.25;4993884;28;20437;-42
2023/07/12 04:22:27;;;;;;;9.87;9.27;;;;;;;19.13;100.00;100481.47;4994088;28;20449;-47
2023/07/12 04:24:55;;;;;;;9.43;8.57;;;;;;;19.13;100.00;100481.47;4993892;28;20515;-46
2023/07/12 04:27:24;;;;;;;8.63;8.03;;;;;;;19.11;100.00;100478.22;4994408;28;20442;-43
2023/07/12 04:29:51;;;;;;;8.10;7.77;;;;;;;19.13;100.00;100468.78;4995042;28;20520;-47
2023/07/12 04:32:19;;;;;;;9.50;8.80;;;;;;;19.15;100.00;100484.72;4994753;28;20457;-45
2023/07/12 04:34:47;;;;;;;8.87;8.07;;;;;;;19.17;100.00;100488.81;4994452;28;20480;-42
2023/07/12 04:37:18;;;;;;;8.80;8.40;;;;;;;19.19;100.00;100494.78;4993984;28;20800;-43
2023/07/12 04:39:45;;;;;;;9.10;8.57;;;;;;;19.20;100.00;100492.88;4993746;28;20508;-42
2023/07/12 04:42:13;;;;;;;8.60;8.00;;;;;;;19.21;100.00;100468.28;4993229;28;20457;-46
2023/07/12 04:44:42;;;;;;;9.60;9.03;;;;;;;19.18;100.00;100458.00;4993444;28;20465;-47
2023/07/12 04:47:10;;;;;;;8.37;7.83;;;;;;;19.20;100.00;100482.88;4994178;28;20430;-43
2023/07/12 04:49:38;;;;;;;9.40;8.53;;;;;;;19.23;100.00;100493.16;4994488;28;20430;-42
2023/07/12 04:52:06;;;;;;;9.00;8.50;;;;;;;19.23;100.00;100501.25;4993709;28;20477;-42
2023/07/12 04:54:34;;;;;;;8.73;8.33;;;;;;;19.25;100.00;100501.84;4993385;28;20515;-49
2023/07/12 04:57:02;;;;;;;9.27;8.77;;;;;;;19.26;100.00;100487.22;4982128;28;20430;-46
2023/07/12 04:59:30;;;;;;;8.93;8.53;;;;;;;19.26;100.00;100486.44;4977306;28;21077;-48
2023/07/12 05:01:59;;;;;;;9.43;8.90;;;;;;;19.25;100.00;100504.53;4978162;28;20525;-43
2023/07/12 05:04:27;;;;;;;9.37;8.90;;;;;;;19.24;100.00;100511.03;4978558;28;20884;-43
2023/07/12 05:06:55;;;;;;;9.77;9.27;;;;;;;19.25;100.00;100511.84;4977758;28;20794;-47
2023/07/12 05:09:23;;;;;;;9.67;8.90;;;;;;;19.26;100.00;100516.19;4978343;28;20505;-44
2023/07/12 05:11:51;;;;;;;10.27;9.70;;;;;;;19.28;100.00;100517.56;4978115;28;20512;-42
2023/07/12 05:14:19;;;;;;;10.30;9.37;;;;;;;19.35;100.00;100518.13;4976976;28;20526;-46
2023/07/12 05:16:46;;;;;;;9.77;9.07;;;;;;;19.47;100.00;100519.88;4978982;28;20897;-45
2023/07/12 05:19:15;;;;;;;13.13;9.70;;;;;;;19.57;100.00;100534.28;4978558;28;20485;-42
2023/07/12 05:21:43;;;;;;;9.57;9.07;;;;;;;19.59;100.00;100517.78;4977456;28;20497;-48
2023/07/12 05:24:11;;;;;;;10.30;9.70;;;;;;;19.63;100.00;100521.59;4989787;28;20461;-46
2023/07/12 05:26:39;;;;;;;10.93;10.13;;;;;;;19.66;100.00;100523.78;4984014;28;20545;-42
2023/07/12 05:29:06;;;;;;;11.60;11.00;;;;;;;19.69;100.00;100528.66;4989065;28;20434;-42
2023/07/12 05:31:34;;;;;;;12.57;11.57;;;;;;;19.70;100.00;100541.94;4997620;28;20508;-45
2023/07/12 05:34:02;;;;;;;13.07;11.97;;;;;;;19.70;100.00;100543.81;4998884;28;20444;-44
2023/07/12 05:36:31;;;;;;;12.67;11.70;;;;;;;19.68;100.00;100533.25;4997995;28;20433;-45
2023/07/12 05:38:59;;;;;;;13.03;12.13;;;;;;;19.67;100.00;100531.63;4998138;28;20473;-42
2023/07/12 05:41:27;;;;;;;12.37;11.67;;;;;;;19.71;100.00;100542.75;4998366;28;20476;-46
2023/07/12 05:43:54;;;;;;;12.20;11.50;;;;;;;19.68;100.00;100537.88;4998527;28;20434;-45
2023/07/12 05:46:23;;;;;;;13.00;12.00;;;;;;;19.68;100.00;100557.59;4998140;28;20458;-43
2023/07/12 05:48:51;;;;;;;12.60;11.77;;;;;;;19.66;100.00;100564.34;4997790;28;20453;-42
2023/07/12 05:51:19;;;;;;;13.00;11.90;;;;;;;19.68;100.00;100578.44;5000283;28;20496;-46
2023/07/12 05:53:48;;;;;;;13.73;12.60;;;;;;;19.66;100.00;100576.00;4999165;28;20430;-45
2023/07/12 05:56:16;;;;;;;12.03;11.43;;;;;;;19.68;100.00;100579.25;4998145;28;20835;-42
2023/07/12 05:58:43;;;;;;;11.90;11.20;;;;;;;19.65;100.00;100587.88;5000010;28;20470;-45
2023/07/12 06:01:11;;;;;;;12.07;11.27;;;;;;;19.62;100.00;100587.59;4999870;28;20492;-45
2023/07/12 06:03:40;;;;;;;11.50;10.80;;;;;;;19.61;100.00;100583.25;4998274;28;20441;-44
2023/07/12 06:06:08;;;;;;;11.03;10.43;;;;;;;19.58;100.00;100586.47;4998619;28;20537;-44
2023/07/12 06:08:36;;;;;;;11.27;10.50;;;;;;;19.56;100.00;100578.59;4997673;28;20429;-43
2023/07/12 06:11:05;;;;;;;12.20;11.50;;;;;;;19.54;100.00;100593.47;4995289;28;20453;-44
2023/07/12 06:13:33;;;;;;;11.40;10.70;;;;;;;19.50;100.00;100595.91;4984237;28;20508;-42
2023/07/12 06:16:02;;;;;;;13.70;12.90;;;;;;;19.47;100.00;100588.31;4976901;28;20521;-47
2023/07/12 06:18:30;;;;;;;12.50;11.73;;;;;;;19.48;100.00;100576.41;4977527;28;20801;-46
2023/07/12 06:21:01;;;;;;;13.40;12.50;;;;;;;19.62;100.00;100576.78;4977104;28;20458;-42
2023/07/12 06:23:29;;;;;;;15.93;14.63;;;;;;;19.71;100.00;100583.34;4978261;28;20470;-45
2023/07/12 06:25:58;;;;;;;14.30;13.43;;;;;;;19.84;100.00;100582.88;4978047;28;20466;-47
2023/07/12 06:28:27;;;;;;;17.43;16.33;;;;;;;19.99;100.00;100587.56;4976928;28;20446;-46
2023/07/12 06:30:55;;;;;;;17.90;16.37;;;;;;;20.11;100.00;100582.75;4976635;28;20550;-42
2023/07/12 06:33:24;;;;;;;14.90;13.67;;;;;;;20.19;100.00;100579.56;4978411;28;20434;-42
2023/07/12 06:35:51;;;;;;;11.80;10.90;;;;;;;20.25;100.00;100570.38;4979035;28;20562;-43
2023/07/12 06:38:19;;;;;;;14.30;13.20;;;;;;;20.34;100.00;100568.81;4976172;28;20434;-44
2023/07/12 06:40:47;;;;;;;13.17;12.30;;;;;;;20.40;100.00;100559.63;4976468;28;20861;-43
2023/07/12 06:43:14;;;;;;;18.80;17.33;;;;;;;20.42;100.00;100557.47;4975632;28;20873;-49
2023/07/12 06:45:46;;;;;;;28.10;25.93;;;;;;;20.39;100.00;100558.00;4975871;28;20470;-44
2023/07/12 06:48:13;;;;;;;25.20;23.50;;;;;;;20.34;100.00;100547.97;4975880;28;20426;-43
2023/07/12 06:50:41;;;;;;;17.57;16.43;;;;;;;20.28;100.00;100549.03;4976196;28;20470;-49
2023/07/12 06:53:09;;;;;;;32.00;29.87;;;;;;;20.34;100.00;100550.66;4974683;28;20437;-45
2023/07/12 06:55:43;;;;;;;40.70;37.80;;;;;;;20.38;100.00;100532.81;4977007;28;21112;-42
2023/07/12 06:58:11;;;;;;;63.83;59.20;;;;;;;20.46;100.00;100525.25;4978678;28;20430;-45
2023/07/12 07:00:40;;;;;;;50.03;46.63;;;;;;;20.58;100.00;100540.19;4978461;28;20474;-44
2023/07/12 07:03:10;;;;;;;36.03;33.40;;;;;;;20.67;100.00;100573.00;4977762;28;20431;-42
2023/07/12 07:05:40;;;;;;;22.50;21.00;;;;;;;20.56;100.00;100560.50;4978752;28;20458;-45
2023/07/12 07:08:09;;;;;;;16.40;15.00;;;;;;;20.53;100.00;100555.59;4976842;28;20862;-45
2023/07/12 07:10:37;;;;;;;15.50;14.20;;;;;;;20.42;100.00;100555.59;4979571;28;21010;-42
2023/07/12 07:13:05;;;;;;;21.10;19.90;;;;;;;20.28;100.00;100559.06;4977955;28;20457;-43
2023/07/12 07:15:33;;;;;;;15.47;14.37;;;;;;;20.08;100.00;100562.44;4976363;28;20497;-46
2023/07/12 07:18:01;;;;;;;12.10;11.20;;;;;;;19.94;100.00;100571.28;4977413;28;20585;-43
2023/07/12 07:20:30;;;;;;;12.10;11.17;;;;;;;19.82;100.00;100576.91;4976934;28;20474;-42
2023/07/12 07:23:00;;;;;;;12.00;11.20;;;;;;;19.74;100.00;100575.50;4975980;28;20805;-42
2023/07/12 07:25:28;;;;;;;10.73;10.10;;;;;;;19.73;100.00;100586.59;4974974;28;20470;-43
2023/07/12 07:27:56;;;;;;;10.77;10.17;;;;;;;19.75;100.00;100597.97;4975292;28;20860;-47
2023/07/12 07:30:26;;;;;;;10.07;9.67;;;;;;;19.82;100.00;100593.97;4976569;28;20462;-44
2023/07/12 07:32:54;;;;;;;10.53;9.93;;;;;;;19.90;100.00;100598.06;4976404;28;20545;-46
2023/07/12 07:35:23;;;;;;;9.23;8.77;;;;;;;19.85;100.00;100600.75;4974280;28;20589;-45
2023/07/12 07:37:53;;;;;;;9.33;8.80;;;;;;;19.91;100.00;100602.41;4974870;28;20438;-46
2023/07/12 07:40:21;;;;;;;10.00;9.50;;;;;;;19.97;100.00;100617.59;4976245;28;20480;-45
2023/07/12 07:42:48;;;;;;;11.50;10.80;;;;;;;20.18;100.00;100624.78;4975528;28;20457;-47
2023/07/12 07:45:16;;;;;;;10.10;9.70;;;;;;;20.52;100.00;100616.31;4975379;28;20889;-43
2023/07/12 07:47:44;;;;;;;10.57;9.60;;;;;;;20.88;100.00;100626.16;4974709;28;20944;-43
2023/07/12 07:50:12;;;;;;;11.23;10.43;;;;;;;21.09;100.00;100608.88;4975558;28;20860;-45
2023/07/12 07:52:39;;;;;;;10.70;10.07;;;;;;;21.28;100.00;100599.16;4975515;28;20841;-46
2023/07/12 07:55:09;;;;;;;10.77;10.17;;;;;;;21.53;100.00;100604.56;4975372;28;20467;-45
2023/07/12 07:57:37;;;;;;;13.07;11.80;;;;;;;21.70;100.00;100595.34;4975349;28;20430;-42
2023/07/12 08:00:10;;;;;;;11.40;10.70;;;;;;;21.56;100.00;100597.00;4974583;28;20521;-46
2023/07/12 08:02:38;;;;;;;12.27;11.40;;;;;;;21.67;100.00;100588.56;4976112;28;20525;-44
2023/07/12 08:05:07;;;;;;;12.77;12.07;;;;;;;21.87;100.00;100599.38;4975561;28;21010;-43
2023/07/12 08:07:39;;;;;;;11.43;10.80;;;;;;;22.33;100.00;100602.84;4975114;28;20740;-45
2023/07/12 08:10:14;;;;;;;12.37;11.67;;;;;;;22.54;100.00;100609.00;4976326;28;20775;-45
2023/07/12 08:12:42;;;;;;;13.30;12.00;;;;;;;22.81;100.00;100601.28;4974728;28;20497;-43
2023/07/12 08:15:11;;;;;;;13.40;12.60;;;;;;;23.00;100.00;100601.41;4975345;28;20521;-44
2023/07/12 08:17:38;;;;;;;13.40;12.70;;;;;;;22.99;100.00;100621.56;4976619;28;20430;-46
2023/07/12 08:20:08;;;;;;;13.13;12.00;;;;;;;22.52;100.00;100611.97;4975517;28;20546;-48
2023/07/12 08:22:36;;;;;;;13.10;11.80;;;;;;;22.22;100.00;100617.53;4975836;28;20482;-42
2023/07/12 08:25:05;;;;;;;15.93;12.77;;;;;;;22.03;100.00;100625.47;4975012;28;20470;-45
2023/07/12 08:27:34;;;;;;;13.53;12.53;;;;;;;21.87;100.00;100623.00;4976976;28;20446;-44
2023/07/12 08:30:03;;;;;;;13.47;12.37;;;;;;;21.66;100.00;100632.25;4976342;28;20446;-45
2023/07/12 08:32:33;;;;;;;13.97;12.60;;;;;;;21.35;100.00;100629.56;4975527;28;20545;-46
2023/07/12 08:35:01;;;;;;;13.20;11.90;;;;;;;21.24;100.00;100622.47;4979259;28;21084;-45
2023/07/12 08:37:29;;;;;;;13.77;12.57;;;;;;;21.04;100.00;100624.31;4980125;28;20465;-44
2023/07/12 08:39:57;;;;;;;13.23;12.20;;;;;;;20.91;100.00;100626.44;4979077;28;20512;-49
2023/07/12 08:42:29;;;;;;;13.87;12.87;;;;;;;20.95;100.00;100632.16;4978609;28;20872;-47
2023/07/12 08:45:02;;;;;;;13.87;12.70;;;;;;;21.02;100.00;100621.06;4978677;28;20493;-45
2023/07/12 08:47:36;;;;;;;13.83;12.43;;;;;;;20.98;100.00;100621.59;4977454;28;20537;-47
2023/07/12 08:50:13;;;;;;;15.53;13.20;;;;;;;21.06;100.00;100603.16;4976080;28;20465;-48
2023/07/12 08:52:41;;;;;;;15.43;12.60;;;;;;;21.29;100.00;100587.25;4975741;28;20457;-44
2023/07/12 08:55:14;;;;;;;14.70;13.30;;;;;;;21.68;100.00;100578.53;4974839;28;20480;-46
2023/07/12 08:57:42;;;;;;;14.93;13.53;;;;;;;21.89;100.00;100542.94;4974625;28;20481;-48
2023/07/12 09:00:18;;;;;;;13.90;12.63;;;;;;;22.21;100.00;100523.56;4975901;28;20521;-45
2023/07/12 09:02:46;;;;;;;15.57;14.40;;;;;;;23.01;100.00;100622.09;4981940;28;20477;-44
2023/07/12 09:05:16;;;;;;;14.53;13.33;;;;;;;23.54;100.00;100639.44;4974586;28;20573;-44
2023/07/12 09:07:54;;;;;;;15.23;13.83;;;;;;;23.52;100.00;100636.19;4981751;28;20430;-46
2023/07/12 09:10:33;;;;;;;16.07;14.67;;;;;;;24.04;100.00;100632.72;4974674;28;20468;-44
2023/07/12 09:13:02;;;;;;;15.13;12.70;;;;;;;24.07;100.00;100622.03;4974257;28;20441;-43
2023/07/12 09:15:35;;;;;;;14.03;12.93;;;;;;;24.07;100.00;100630.22;4974124;28;20469;-46
2023/07/12 09:18:06;;;;;;;14.77;13.70;;;;;;;24.48;100.00;100624.34;4974553;28;20434;-44
2023/07/12 09:20:39;;;;;;;15.77;14.57;;;;;;;24.80;100.00;100627.19;4989410;28;20468;-43
2023/07/12 09:23:10;;;;;;;14.73;13.83;;;;;;;24.83;100.00;100634.81;4993647;28;20474;-44
2023/07/12 09:25:39;;;;;;;15.13;14.23;;;;;;;24.74;100.00;100631.91;4992790;28;20520;-44
2023/07/12 09:28:12;;;;;;;16.10;15.00;;;;;;;25.04;100.00;100621.72;4992149;28;20476;-45
2023/07/12 09:30:42;;;;;;;14.70;13.83;;;;;;;25.29;100.00;100622.16;4987703;28;20509;-45
2023/07/12 09:33:19;;;;;;;14.67;13.70;;;;;;;25.41;100.00;100627.16;4982090;28;20433;-45
2023/07/12 09:35:49;;;;;;;14.20;12.87;;;;;;;25.28;100.00;100623.25;4981675;28;20462;-47
2023/07/12 09:38:22;;;;;;;14.50;13.50;;;;;;;25.33;100.00;100638.72;4988159;28;20461;-42
2023/07/12 09:40:52;;;;;;;13.13;12.43;;;;;;;25.10;100.00;100629.53;4984659;28;20639;-45
2023/07/12 09:43:23;;;;;;;15.13;13.93;;;;;;;25.29;100.00;100635.81;4987309;28;20426;-43
2023/07/12 09:46:08;;;;;;;14.57;13.47;;;;;;;25.23;100.00;100628.81;4984704;28;20454;-44
2023/07/12 09:48:46;;;;;;;14.20;13.20;;;;;;;25.00;100.00;100626.94;4986671;28;20429;-42
2023/07/12 09:51:28;;;;;;;14.20;12.97;;;;;;;24.69;100.00;100632.00;4987205;28;20437;-44
2023/07/12 09:54:03;;;;;;;13.57;12.30;;;;;;;24.62;100.00;100626.06;4980799;28;20944;-45
2023/07/12 09:56:37;;;;;;;14.93;12.93;;;;;;;24.65;100.00;100630.94;4987742;28;20532;-46
2023/07/12 09:59:13;;;;;;;13.43;12.23;;;;;;;24.61;100.00;100642.75;4982930;28;20842;-44
2023/07/12 10:01:53;;;;;;;11.90;10.90;;;;;;;24.67;100.00;100639.63;4986288;28;20980;-42
2023/07/12 10:04:34;;;;;;;13.90;12.20;;;;;;;25.11;100.00;100638.53;4987908;28;20525;-46
2023/07/12 10:07:06;;;;;;;12.30;11.40;;;;;;;25.44;100.00;100636.66;4983321;28;20426;-43
2023/07/12 10:09:37;;;;;;;14.23;12.23;;;;;;;25.79;100.00;100636.91;4986373;28;20482;-44
2023/07/12 10:12:12;;;;;;;13.03;11.93;;;;;;;25.64;100.00;100626.25;4986606;28;20441;-42
2023/07/12 10:14:43;;;;;;;16.00;12.43;;;;;;;25.69;100.00;100628.06;4985324;28;20515;-44
2023/07/12 10:17:18;;;;;;;14.33;12.50;;;;;;;25.72;100.00;100622.81;4985751;28;20418;-44
2023/07/12 10:19:52;;;;;;;12.90;11.80;;;;;;;25.48;100.00;100616.69;4985252;28;20454;-46
2023/07/12 10:22:25;;;;;;;12.80;11.37;;;;;;;25.54;100.00;100614.66;4986552;28;21033;-47
2023/07/12 10:24:54;;;;;;;15.80;10.73;;;;;;;25.65;100.00;100616.97;4992224;28;20493;-44
2023/07/12 10:27:24;;;;;;;15.97;11.00;;;;;;;25.75;100.00;100621.41;4993035;28;20481;-43
2023/07/12 10:29:57;;;;;;;13.73;10.87;;;;;;;25.76;100.00;100621.13;4992310;28;20860;-43
2023/07/12 10:32:30;;;;;;;14.63;10.10;;;;;;;25.63;100.00;100632.81;4991017;28;20499;-41
2023/07/12 10:35:06;;;;;;;14.63;9.40;;;;;;;25.01;100.00;100639.50;4992866;28;20497;-46
2023/07/12 10:37:38;;;;;;;10.50;9.13;;;;;;;24.86;100.00;100639.69;4992573;28;20435;-42
2023/07/12 10:40:13;;;;;;;10.47;9.37;;;;;;;24.89;100.00;100660.13;4992140;28;20521;-47
2023/07/12 10:42:46;;;;;;;9.17;8.37;;;;;;;25.10;100.00;100654.09;4991669;28;20468;-42
2023/07/12 10:45:19;;;;;;;8.90;8.20;;;;;;;25.29;100.00;100659.56;4991412;28;20466;-43
2023/07/12 10:47:50;;;;;;;12.47;9.17;;;;;;;25.58;100.00;100660.22;4992463;28;20915;-43
2023/07/12 10:50:24;;;;;;;10.23;8.53;;;;;;;25.75;100.00;100660.47;4992744;28;20438;-42
2023/07/12 10:53:02;;;;;;;9.73;9.00;;;;;;;26.15;100.00;100658.97;4991640;28;20445;-45
2023/07/12 10:55:44;;;;;;;10.23;9.00;;;;;;;26.52;100.00;100658.00;4991861;28;21027;-45
2023/07/12 10:58:44;;;;;;;11.33;8.10;;;;;;;26.81;100.00;100663.97;4992383;28;20437;-44
2023/07/12 11:01:38;;;;;;;9.87;7.13;;;;;;;26.50;96.18;100670.31;4991017;28;20483;-46
2023/07/12 11:04:09;;;;;;;13.63;7.80;;;;;;;26.71;96.73;100677.81;4991328;28;20480;-43
2023/07/12 11:06:54;;;;;;;7.03;6.47;;;;;;;26.89;99.49;100676.09;4992523;28;20438;-44
2023/07/12 11:09:24;;;;;;;11.97;7.47;;;;;;;26.67;93.05;100681.50;4992346;28;20433;-45
2023/07/12 11:11:59;;;;;;;7.40;6.77;;;;;;;26.91;94.76;100685.63;4991779;28;20508;-42
2023/07/12 11:14:46;;;;;;;6.60;5.90;;;;;;;26.26;87.51;100685.00;4991415;28;20882;-42
2023/07/12 11:17:20;;;;;;;9.20;7.07;;;;;;;25.54;96.76;100683.75;4991685;28;20439;-46
2023/07/12 11:20:05;;;;;;;9.80;6.50;;;;;;;25.02;100.00;100689.41;4991468;28;20487;-42
2023/07/12 11:22:55;;;;;;;7.60;6.80;;;;;;;25.35;100.00;100679.41;4991474;28;20509;-44